sensor_id;sensor_type;location;lat;lon;timestamp;pressure;altitude;pressure_sealevel;temperature;humidity
69749;BME280;57019;52.354;6.584;2022-08-19T00:01:51;101357.09;;;24.53;51.27
69749;BME280;57019;52.354;6.584;2022-08-19T00:04:20;101357.72;;;24.55;51.15
69749;BME280;57019;52.354;6.584;2022-08-19T00:06:46;101356.31;;;24.53;51.19
69749;BME280;57019;52.354;6.584;2022-08-19T00:09:15;101354.88;;;24.50;51.22
69749;BME280;57019;52.354;6.584;2022-08-19T00:11:41;101354.06;;;24.50;51.20
69749;BME280;57019;52.354;6.584;2022-08-19T00:14:09;101350.59;;;24.49;51.17
69749;BME280;57019;52.354;6.584;2022-08-19T00:16:35;101354.88;;;24.50;51.19
69749;BME280;57019;52.354;6.584;2022-08-19T00:19:02;101355.88;;;24.49;50.98
69749;BME280;57019;52.354;6.584;2022-08-19T00:21:28;101357.06;;;24.47;51.16
69749;BME280;57019;52.354;6.584;2022-08-19T00:23:54;101351.00;;;24.46;51.10
69749;BME280;57019;52.354;6.584;2022-08-19T00:26:24;101359.91;;;24.45;51.08
69749;BME280;57019;52.354;6.584;2022-08-19T00:28:49;101354.63;;;24.45;50.99
69749;BME280;57019;52.354;6.584;2022-08-19T00:31:14;101358.31;;;24.44;51.14
69749;BME280;57019;52.354;6.584;2022-08-19T00:33:41;101351.41;;;24.43;51.08
69749;BME280;57019;52.354;6.584;2022-08-19T00:36:07;101355.84;;;24.43;51.10
69749;BME280;57019;52.354;6.584;2022-08-19T00:38:36;101351.41;;;24.43;51.02
69749;BME280;57019;52.354;6.584;2022-08-19T00:41:04;101349.75;;;24.42;51.06
69749;BME280;57019;52.354;6.584;2022-08-19T00:43:30;101344.50;;;24.42;50.96
69749;BME280;57019;52.354;6.584;2022-08-19T00:45:55;101344.06;;;24.38;50.97
69749;BME280;57019;52.354;6.584;2022-08-19T00:48:21;101350.16;;;24.39;51.09
69749;BME280;57019;52.354;6.584;2022-08-19T00:50:50;101350.97;;;24.39;51.06
69749;BME280;57019;52.354;6.584;2022-08-19T00:53:20;101347.72;;;24.37;50.97
69749;BME280;57019;52.354;6.584;2022-08-19T00:55:48;101353.81;;;24.38;50.99
69749;BME280;57019;52.354;6.584;2022-08-19T00:58:19;101359.09;;;24.38;51.03
69749;BME280;57019;52.354;6.584;2022-08-19T01:00:46;101351.38;;;24.36;51.22
69749;BME280;57019;52.354;6.584;2022-08-19T01:03:15;101353.22;;;24.36;51.07
69749;BME280;57019;52.354;6.584;2022-08-19T01:05:42;101350.56;;;24.36;51.00
69749;BME280;57019;52.354;6.584;2022-08-19T01:08:09;101349.75;;;24.35;51.06
69749;BME280;57019;52.354;6.584;2022-08-19T01:10:42;101348.94;;;24.35;51.07
69749;BME280;57019;52.354;6.584;2022-08-19T01:13:10;101348.09;;;24.34;51.08
69749;BME280;57019;52.354;6.584;2022-08-19T01:15:44;101348.94;;;24.35;51.00
69749;BME280;57019;52.354;6.584;2022-08-19T01:18:12;101343.84;;;24.33;50.95
69749;BME280;57019;52.354;6.584;2022-08-19T01:20:41;101344.06;;;24.32;50.95
69749;BME280;57019;52.354;6.584;2022-08-19T01:23:07;101334.72;;;24.29;51.12
69749;BME280;57019;52.354;6.584;2022-08-19T01:25:52;101340.78;;;24.30;51.00
69749;BME280;57019;52.354;6.584;2022-08-19T01:28:25;101338.34;;;24.28;50.97
69749;BME280;57019;52.354;6.584;2022-08-19T01:30:51;101343.63;;;24.28;50.97
69749;BME280;57019;52.354;6.584;2022-08-19T01:33:17;101333.28;;;24.27;50.98
69749;BME280;57019;52.354;6.584;2022-08-19T01:35:44;101338.34;;;24.28;50.97
69749;BME280;57019;52.354;6.584;2022-08-19T01:38:23;101331.44;;;24.27;51.04
69749;BME280;57019;52.354;6.584;2022-08-19T01:40:49;101325.38;;;24.27;50.98
69749;BME280;57019;52.354;6.584;2022-08-19T01:43:14;101330.63;;;24.27;50.98
69749;BME280;57019;52.354;6.584;2022-08-19T01:45:40;101324.13;;;24.22;51.10
69749;BME280;57019;52.354;6.584;2022-08-19T01:48:06;101329.41;;;24.22;51.09
69749;BME280;57019;52.354;6.584;2022-08-19T01:50:33;101331.84;;;24.24;50.99
69749;BME280;57019;52.354;6.584;2022-08-19T01:53:00;101336.13;;;24.25;51.07
69749;BME280;57019;52.354;6.584;2022-08-19T01:55:25;101338.31;;;24.21;51.12
69749;BME280;57019;52.354;6.584;2022-08-19T01:57:55;101343.59;;;24.21;51.18
69749;BME280;57019;52.354;6.584;2022-08-19T02:00:24;101343.00;;;24.19;51.16
69749;BME280;57019;52.354;6.584;2022-08-19T02:02:51;101345.63;;;24.19;51.16
69749;BME280;57019;52.354;6.584;2022-08-19T02:05:17;101350.91;;;24.19;51.22
69749;BME280;57019;52.354;6.584;2022-08-19T02:07:43;101342.38;;;24.17;51.25
69749;BME280;57019;52.354;6.584;2022-08-19T02:10:13;101337.09;;;24.17;51.06
69749;BME280;57019;52.354;6.584;2022-08-19T02:12:38;101336.28;;;24.17;51.25
69749;BME280;57019;52.354;6.584;2022-08-19T02:15:04;101333.66;;;24.17;50.98
69749;BME280;57019;52.354;6.584;2022-08-19T02:17:31;101333.84;;;24.15;51.14
69749;BME280;57019;52.354;6.584;2022-08-19T02:19:56;101338.09;;;24.16;51.15
69749;BME280;57019;52.354;6.584;2022-08-19T02:22:23;101338.28;;;24.15;51.15
69749;BME280;57019;52.354;6.584;2022-08-19T02:24:49;101331.91;;;23.96;51.56
69749;BME280;57019;52.354;6.584;2022-08-19T02:27:15;101333.72;;;23.88;51.90
69749;BME280;57019;52.354;6.584;2022-08-19T02:29:41;101340.22;;;23.93;51.59
69749;BME280;57019;52.354;6.584;2022-08-19T02:32:07;101334.19;;;23.99;51.39
69749;BME280;57019;52.354;6.584;2022-08-19T02:34:33;101336.63;;;24.00;51.44
69749;BME280;57019;52.354;6.584;2022-08-19T02:36:58;101343.69;;;24.00;51.34
69749;BME280;57019;52.354;6.584;2022-08-19T02:39:24;101345.53;;;23.99;51.29
69749;BME280;57019;52.354;6.584;2022-08-19T02:41:49;101346.34;;;24.00;51.19
69749;BME280;57019;52.354;6.584;2022-08-19T02:44:16;101346.34;;;24.00;51.05
69749;BME280;57019;52.354;6.584;2022-08-19T02:46:41;101343.91;;;23.98;51.20
69749;BME280;57019;52.354;6.584;2022-08-19T02:49:08;101334.19;;;23.99;51.06
69749;BME280;57019;52.354;6.584;2022-08-19T02:51:40;101338.63;;;23.98;51.03
69749;BME280;57019;52.354;6.584;2022-08-19T02:54:07;101339.81;;;23.96;51.11
69749;BME280;57019;52.354;6.584;2022-08-19T02:56:35;101336.19;;;23.97;51.00
69749;BME280;57019;52.354;6.584;2022-08-19T02:59:01;101335.75;;;23.93;50.94
69749;BME280;57019;52.354;6.584;2022-08-19T03:01:31;101338.59;;;23.92;51.02
69749;BME280;57019;52.354;6.584;2022-08-19T03:03:59;101340.63;;;23.90;50.98
69749;BME280;57019;52.354;6.584;2022-08-19T03:06:26;101347.88;;;23.87;50.88
69749;BME280;57019;52.354;6.584;2022-08-19T03:08:52;101348.25;;;23.84;50.75
69749;BME280;57019;52.354;6.584;2022-08-19T03:11:25;101352.09;;;23.82;50.87
69749;BME280;57019;52.354;6.584;2022-08-19T03:13:51;101353.09;;;23.81;50.84
69749;BME280;57019;52.354;6.584;2022-08-19T03:16:18;101344.38;;;23.80;50.69
69749;BME280;57019;52.354;6.584;2022-08-19T03:18:44;101354.13;;;23.80;50.53
69749;BME280;57019;52.354;6.584;2022-08-19T03:21:15;101348.03;;;23.79;50.71
69749;BME280;57019;52.354;6.584;2022-08-19T03:23:41;101356.31;;;23.76;50.58
69749;BME280;57019;52.354;6.584;2022-08-19T03:26:06;101357.53;;;23.74;50.64
69749;BME280;57019;52.354;6.584;2022-08-19T03:28:32;101352.06;;;23.75;50.60
69749;BME280;57019;52.354;6.584;2022-08-19T03:31:02;101343.34;;;23.75;50.48
69749;BME280;57019;52.354;6.584;2022-08-19T03:33:30;101347.81;;;23.74;50.55
69749;BME280;57019;52.354;6.584;2022-08-19T03:36:20;101346.19;;;23.73;50.57
69749;BME280;57019;52.354;6.584;2022-08-19T03:38:49;101341.91;;;23.72;50.43
69749;BME280;57019;52.354;6.584;2022-08-19T03:41:19;101336.03;;;23.70;50.47
69749;BME280;57019;52.354;6.584;2022-08-19T03:43:45;101341.28;;;23.70;50.45
69749;BME280;57019;52.354;6.584;2022-08-19T03:46:23;101344.28;;;23.67;50.47
69749;BME280;57019;52.354;6.584;2022-08-19T03:48:51;101343.69;;;23.65;50.35
69749;BME280;57019;52.354;6.584;2022-08-19T03:51:28;101348.13;;;23.64;50.39
69749;BME280;57019;52.354;6.584;2022-08-19T03:53:57;101342.84;;;23.64;50.25
69749;BME280;57019;52.354;6.584;2022-08-19T03:56:23;101339.81;;;23.61;50.38
69749;BME280;57019;52.354;6.584;2022-08-19T03:58:51;101340.63;;;23.61;50.34
69749;BME280;57019;52.354;6.584;2022-08-19T04:01:19;101338.97;;;23.60;50.25
69749;BME280;57019;52.354;6.584;2022-08-19T04:03:45;101340.00;;;23.59;50.18
69749;BME280;57019;52.354;6.584;2022-08-19T04:06:26;101340.81;;;23.60;50.28
69749;BME280;57019;52.354;6.584;2022-08-19T04:08:54;101335.94;;;23.57;50.16
69749;BME280;57019;52.354;6.584;2022-08-19T04:11:23;101327.38;;;23.54;50.34
69749;BME280;57019;52.354;6.584;2022-08-19T04:13:50;101331.06;;;23.53;50.33
69749;BME280;57019;52.354;6.584;2022-08-19T04:16:20;101332.06;;;23.52;50.33
69749;BME280;57019;52.354;6.584;2022-08-19T04:18:47;101333.84;;;23.52;50.32
69749;BME280;57019;52.354;6.584;2022-08-19T04:21:18;101333.25;;;23.50;50.20
69749;BME280;57019;52.354;6.584;2022-08-19T04:23:44;101330.41;;;23.51;50.23
69749;BME280;57019;52.354;6.584;2022-08-19T04:26:22;101325.34;;;23.50;50.34
69749;BME280;57019;52.354;6.584;2022-08-19T04:28:48;101322.69;;;23.50;50.29
69749;BME280;57019;52.354;6.584;2022-08-19T04:31:20;101332.59;;;23.48;50.46
69749;BME280;57019;52.354;6.584;2022-08-19T04:33:46;101329.97;;;23.48;50.05
69749;BME280;57019;52.354;6.584;2022-08-19T04:36:20;101331.81;;;23.47;50.15
69749;BME280;57019;52.354;6.584;2022-08-19T04:38:47;101329.38;;;23.46;50.20
69749;BME280;57019;52.354;6.584;2022-08-19T04:41:13;101324.28;;;23.44;50.12
69749;BME280;57019;52.354;6.584;2022-08-19T04:43:57;101324.50;;;23.43;50.14
69749;BME280;57019;52.354;6.584;2022-08-19T04:46:23;101320.03;;;23.43;50.04
69749;BME280;57019;52.354;6.584;2022-08-19T04:48:48;101321.03;;;23.42;49.94
69749;BME280;57019;52.354;6.584;2022-08-19T04:51:14;101318.38;;;23.42;49.99
69749;BME280;57019;52.354;6.584;2022-08-19T04:53:41;101316.94;;;23.40;49.90
69749;BME280;57019;52.354;6.584;2022-08-19T04:56:09;101334.59;;;23.39;50.13
69749;BME280;57019;52.354;6.584;2022-08-19T04:58:37;101336.22;;;23.40;49.92
69749;BME280;57019;52.354;6.584;2022-08-19T05:01:03;101334.59;;;23.39;49.83
69749;BME280;57019;52.354;6.584;2022-08-19T05:03:29;101332.94;;;23.38;50.11
69749;BME280;57019;52.354;6.584;2022-08-19T05:06:04;101327.69;;;23.38;50.10
69749;BME280;57019;52.354;6.584;2022-08-19T05:08:30;101339.84;;;23.39;50.04
69749;BME280;57019;52.354;6.584;2022-08-19T05:10:56;101343.50;;;23.38;50.14
69749;BME280;57019;52.354;6.584;2022-08-19T05:13:22;101343.69;;;23.36;50.38
69749;BME280;57019;52.354;6.584;2022-08-19T05:15:56;101336.63;;;23.37;50.17
69749;BME280;57019;52.354;6.584;2022-08-19T05:18:22;101340.25;;;23.36;50.34
69749;BME280;57019;52.354;6.584;2022-08-19T05:21:18;101323.59;;;23.35;50.50
69749;BME280;57019;52.354;6.584;2022-08-19T05:24:03;101338.00;;;23.33;50.54
69749;BME280;57019;52.354;6.584;2022-08-19T05:26:28;101340.63;;;23.33;50.51
69749;BME280;57019;52.354;6.584;2022-08-19T05:28:54;101339.00;;;23.32;50.39
69749;BME280;57019;52.354;6.584;2022-08-19T05:31:20;101336.38;;;23.32;50.42
69749;BME280;57019;52.354;6.584;2022-08-19T05:33:46;101332.91;;;23.31;50.54
69749;BME280;57019;52.354;6.584;2022-08-19T05:36:11;101328.47;;;23.32;50.42
69749;BME280;57019;52.354;6.584;2022-08-19T05:38:37;101324.81;;;23.33;50.47
69749;BME280;57019;52.354;6.584;2022-08-19T05:41:09;101330.25;;;23.31;50.57
69749;BME280;57019;52.354;6.584;2022-08-19T05:43:35;101331.28;;;23.30;50.51
69749;BME280;57019;52.354;6.584;2022-08-19T05:46:01;101317.72;;;23.33;50.56
69749;BME280;57019;52.354;6.584;2022-08-19T05:48:26;101322.00;;;23.34;50.66
69749;BME280;57019;52.354;6.584;2022-08-19T05:50:52;101324.44;;;23.36;50.59
69749;BME280;57019;52.354;6.584;2022-08-19T05:53:18;101325.56;;;23.27;51.23
69749;BME280;57019;52.354;6.584;2022-08-19T05:55:43;101329.97;;;23.19;51.20
69749;BME280;57019;52.354;6.584;2022-08-19T05:58:09;101328.72;;;23.15;51.61
69749;BME280;57019;52.354;6.584;2022-08-19T06:00:35;101333.09;;;23.08;52.20
69749;BME280;57019;52.354;6.584;2022-08-19T06:03:01;101329.44;;;23.09;51.94
69749;BME280;57019;52.354;6.584;2022-08-19T06:05:29;101331.09;;;23.10;52.21
69749;BME280;57019;52.354;6.584;2022-08-19T06:07:55;101340.81;;;23.10;52.30
69749;BME280;57019;52.354;6.584;2022-08-19T06:10:21;101338.38;;;23.08;52.73
69749;BME280;57019;52.354;6.584;2022-08-19T06:12:47;101340.38;;;23.06;52.90
69749;BME280;57019;52.354;6.584;2022-08-19T06:15:13;101345.25;;;23.09;52.77
69749;BME280;57019;52.354;6.584;2022-08-19T06:17:39;101341.06;;;23.15;52.66
69749;BME280;57019;52.354;6.584;2022-08-19T06:20:09;101336.50;;;23.24;52.37
69749;BME280;57019;52.354;6.584;2022-08-19T06:22:49;101336.16;;;23.33;52.46
69749;BME280;57019;52.354;6.584;2022-08-19T06:25:16;101330.31;;;23.38;52.18
69749;BME280;57019;52.354;6.584;2022-08-19T06:27:42;101331.56;;;23.42;52.53
69749;BME280;57019;52.354;6.584;2022-08-19T06:30:08;101333.00;;;23.45;52.57
69749;BME280;57019;52.354;6.584;2022-08-19T06:32:33;101330.81;;;23.48;52.87
69749;BME280;57019;52.354;6.584;2022-08-19T06:34:59;101332.06;;;23.52;52.19
69749;BME280;57019;52.354;6.584;2022-08-19T06:37:24;101341.63;;;23.60;52.65
69749;BME280;57019;52.354;6.584;2022-08-19T06:39:50;101349.34;;;23.62;52.70
69749;BME280;57019;52.354;6.584;2022-08-19T06:42:15;101345.31;;;23.66;52.33
69749;BME280;57019;52.354;6.584;2022-08-19T06:44:45;101344.53;;;23.72;52.00
69749;BME280;57019;52.354;6.584;2022-08-19T06:47:16;101342.06;;;23.64;53.04
69749;BME280;57019;52.354;6.584;2022-08-19T06:49:42;101340.81;;;23.60;53.12
69749;BME280;57019;52.354;6.584;2022-08-19T06:52:08;101338.38;;;23.58;53.16
69749;BME280;57019;52.354;6.584;2022-08-19T06:54:35;101344.63;;;23.57;53.39
69749;BME280;57019;52.354;6.584;2022-08-19T06:57:02;101349.97;;;23.64;53.19
69749;BME280;57019;52.354;6.584;2022-08-19T06:59:28;101337.41;;;23.66;53.01
69749;BME280;57019;52.354;6.584;2022-08-19T07:01:56;101344.09;;;23.62;53.38
69749;BME280;57019;52.354;6.584;2022-08-19T07:04:27;101349.34;;;23.62;53.52
69749;BME280;57019;52.354;6.584;2022-08-19T07:06:59;101348.91;;;23.58;54.01
69749;BME280;57019;52.354;6.584;2022-08-19T07:09:24;101350.16;;;23.62;53.91
69749;BME280;57019;52.354;6.584;2022-08-19T07:11:51;101353.00;;;23.61;54.22
69749;BME280;57019;52.354;6.584;2022-08-19T07:14:19;101362.69;;;23.60;54.35
69749;BME280;57019;52.354;6.584;2022-08-19T07:16:47;101354.19;;;23.58;54.42
69749;BME280;57019;52.354;6.584;2022-08-19T07:19:13;101356.22;;;23.63;54.62
69749;BME280;57019;52.354;6.584;2022-08-19T07:21:40;101355.22;;;23.64;54.38
69749;BME280;57019;52.354;6.584;2022-08-19T07:24:07;101352.59;;;23.64;54.64
69749;BME280;57019;52.354;6.584;2022-08-19T07:26:38;101350.59;;;23.66;54.83
69749;BME280;57019;52.354;6.584;2022-08-19T07:29:04;101360.13;;;23.67;54.81
69749;BME280;57019;52.354;6.584;2022-08-19T07:31:29;101352.66;;;23.70;54.33
69749;BME280;57019;52.354;6.584;2022-08-19T07:33:55;101366.06;;;23.76;54.30
69749;BME280;57019;52.354;6.584;2022-08-19T07:36:25;101361.78;;;23.75;54.62
69749;BME280;57019;52.354;6.584;2022-08-19T07:38:53;101363.63;;;23.74;54.72
69749;BME280;57019;52.354;6.584;2022-08-19T07:41:22;101365.63;;;23.72;54.91
69749;BME280;57019;52.354;6.584;2022-08-19T07:43:48;101364.44;;;23.75;54.86
69749;BME280;57019;52.354;6.584;2022-08-19T07:46:14;101366.44;;;23.72;55.23
69749;BME280;57019;52.354;6.584;2022-08-19T07:48:42;101357.75;;;23.79;55.01
69749;BME280;57019;52.354;6.584;2022-08-19T07:51:09;101364.28;;;23.83;55.20
69749;BME280;57019;52.354;6.584;2022-08-19T07:53:36;101360.44;;;23.85;54.96
69749;BME280;57019;52.354;6.584;2022-08-19T07:56:02;101369.34;;;23.84;55.25
69749;BME280;57019;52.354;6.584;2022-08-19T07:58:30;101365.09;;;23.83;55.42
69749;BME280;57019;52.354;6.584;2022-08-19T08:00:57;101377.91;;;23.86;55.03
69749;BME280;57019;52.354;6.584;2022-08-19T08:03:23;101377.75;;;23.88;55.15
69749;BME280;57019;52.354;6.584;2022-08-19T08:06:08;101381.97;;;23.89;55.23
69749;BME280;57019;52.354;6.584;2022-08-19T08:08:51;101377.94;;;23.93;55.15
69749;BME280;57019;52.354;6.584;2022-08-19T08:11:35;101377.94;;;23.93;55.29
69749;BME280;57019;52.354;6.584;2022-08-19T08:14:01;101378.78;;;23.94;55.37
69749;BME280;57019;52.354;6.584;2022-08-19T08:16:27;101375.94;;;23.95;55.30
69749;BME280;57019;52.354;6.584;2022-08-19T08:18:56;101375.31;;;23.93;57.24
69749;BME280;57019;52.354;6.584;2022-08-19T08:21:21;101374.75;;;23.98;55.66
69749;BME280;57019;52.354;6.584;2022-08-19T08:23:46;101370.91;;;24.00;55.93
69749;BME280;57019;52.354;6.584;2022-08-19T08:26:12;101375.59;;;24.05;55.78
69749;BME280;57019;52.354;6.584;2022-08-19T08:28:39;101376.22;;;24.07;55.82
69749;BME280;57019;52.354;6.584;2022-08-19T08:31:04;101388.19;;;24.10;56.01
69749;BME280;57019;52.354;6.584;2022-08-19T08:33:30;101382.91;;;24.10;56.77
69749;BME280;57019;52.354;6.584;2022-08-19T08:35:56;101397.53;;;24.12;56.49
69749;BME280;57019;52.354;6.584;2022-08-19T08:38:21;101388.00;;;24.11;56.84
69749;BME280;57019;52.354;6.584;2022-08-19T08:40:52;101394.28;;;24.10;56.31
69749;BME280;57019;52.354;6.584;2022-08-19T08:43:27;101394.28;;;24.10;56.35
69749;BME280;57019;52.354;6.584;2022-08-19T08:46:23;101394.69;;;24.07;56.60
69749;BME280;57019;52.354;6.584;2022-08-19T08:49:19;101396.69;;;24.05;56.26
69749;BME280;57019;52.354;6.584;2022-08-19T08:51:54;101402.81;;;24.12;55.71
69749;BME280;57019;52.354;6.584;2022-08-19T08:54:24;101393.50;;;24.16;55.70
69749;BME280;57019;52.354;6.584;2022-08-19T08:56:53;101396.78;;;24.18;56.26
69749;BME280;57019;52.354;6.584;2022-08-19T08:59:28;101390.66;;;24.18;56.24
69749;BME280;57019;52.354;6.584;2022-08-19T09:02:30;101377.31;;;24.19;55.71
69749;BME280;57019;52.354;6.584;2022-08-19T09:04:55;101381.78;;;24.26;55.44
69749;BME280;57019;52.354;6.584;2022-08-19T09:09:57;101375.66;;;24.18;55.88
69749;BME280;57019;52.354;6.584;2022-08-19T09:15:24;101376.06;;;24.22;55.66
69749;BME280;57019;52.354;6.584;2022-08-19T09:17:52;101374.50;;;24.28;55.35
69749;BME280;57019;52.354;6.584;2022-08-19T09:20:23;101380.59;;;24.35;55.33
69749;BME280;57019;52.354;6.584;2022-08-19T09:22:49;101375.72;;;24.38;54.97
69749;BME280;57019;52.354;6.584;2022-08-19T09:25:21;101369.69;;;24.45;54.71
69749;BME280;57019;52.354;6.584;2022-08-19T09:27:49;101367.25;;;24.43;54.88
69749;BME280;57019;52.354;6.584;2022-08-19T09:30:17;101372.50;;;24.43;54.63
69749;BME280;57019;52.354;6.584;2022-08-19T09:32:45;101369.03;;;24.43;54.62
69749;BME280;57019;52.354;6.584;2022-08-19T09:35:11;101377.19;;;24.48;54.78
69749;BME280;57019;52.354;6.584;2022-08-19T09:37:38;101374.56;;;24.54;55.17
69749;BME280;57019;52.354;6.584;2022-08-19T09:40:04;101371.16;;;24.61;54.41
69749;BME280;57019;52.354;6.584;2022-08-19T09:42:29;101378.69;;;24.64;54.92
69749;BME280;57019;52.354;6.584;2022-08-19T09:44:55;101376.28;;;24.69;54.15
69749;BME280;57019;52.354;6.584;2022-08-19T09:47:20;101371.38;;;24.66;54.71
69749;BME280;57019;52.354;6.584;2022-08-19T09:49:45;101371.41;;;24.72;54.27
69749;BME280;57019;52.354;6.584;2022-08-19T09:52:12;101367.75;;;24.67;55.57
69749;BME280;57019;52.354;6.584;2022-08-19T09:54:38;101368.75;;;24.66;54.49
69749;BME280;57019;52.354;6.584;2022-08-19T09:57:04;101362.25;;;24.68;53.90
69749;BME280;57019;52.354;6.584;2022-08-19T09:59:29;101369.59;;;24.73;53.63
69749;BME280;57019;52.354;6.584;2022-08-19T10:01:55;101364.47;;;24.71;53.32
69749;BME280;57019;52.354;6.584;2022-08-19T10:04:21;101372.06;;;24.81;53.53
69749;BME280;57019;52.354;6.584;2022-08-19T10:06:47;101368.81;;;24.93;53.36
69749;BME280;57019;52.354;6.584;2022-08-19T10:09:15;101365.97;;;24.94;53.72
69749;BME280;57019;52.354;6.584;2022-08-19T10:11:42;101362.91;;;25.04;53.31
69749;BME280;57019;52.354;6.584;2022-08-19T10:14:07;101362.91;;;25.04;52.82
69749;BME280;57019;52.354;6.584;2022-08-19T10:16:34;101366.38;;;25.04;52.16
69749;BME280;57019;52.354;6.584;2022-08-19T10:19:00;101367.78;;;25.07;52.19
69749;BME280;57019;52.354;6.584;2022-08-19T10:21:28;101360.50;;;25.09;52.45
69749;BME280;57019;52.354;6.584;2022-08-19T10:23:58;101358.25;;;25.06;52.44
69749;BME280;57019;52.354;6.584;2022-08-19T10:26:29;101358.25;;;24.99;52.51
69749;BME280;57019;52.354;6.584;2022-08-19T10:28:55;101353.56;;;24.95;52.29
69749;BME280;57019;52.354;6.584;2022-08-19T10:31:25;101360.91;;;25.06;52.88
69749;BME280;57019;52.354;6.584;2022-08-19T10:33:51;101352.56;;;25.02;51.50
69749;BME280;57019;52.354;6.584;2022-08-19T10:36:26;101357.22;;;25.00;51.86
69749;BME280;57019;52.354;6.584;2022-08-19T10:38:54;101363.75;;;24.98;51.95
69749;BME280;57019;52.354;6.584;2022-08-19T10:41:27;101354.78;;;24.99;51.84
69749;BME280;57019;52.354;6.584;2022-08-19T10:43:56;101346.66;;;25.00;51.68
69749;BME280;57019;52.354;6.584;2022-08-19T10:46:24;101363.72;;;25.04;51.38
69749;BME280;57019;52.354;6.584;2022-08-19T10:48:50;101356.44;;;25.06;51.03
69749;BME280;57019;52.354;6.584;2022-08-19T10:51:16;101357.22;;;25.07;51.41
69749;BME280;57019;52.354;6.584;2022-08-19T10:54:01;101351.94;;;25.07;50.90
69749;BME280;57019;52.354;6.584;2022-08-19T10:56:28;101351.56;;;25.10;51.12
69749;BME280;57019;52.354;6.584;2022-08-19T10:59:12;101354.00;;;25.18;50.28
69749;BME280;57019;52.354;6.584;2022-08-19T11:01:40;101356.03;;;25.30;50.23
69749;BME280;57019;52.354;6.584;2022-08-19T11:04:06;101355.22;;;25.36;50.58
69749;BME280;57019;52.354;6.584;2022-08-19T11:06:35;101346.91;;;25.39;50.88
69749;BME280;57019;52.354;6.584;2022-08-19T11:09:00;101354.41;;;25.42;51.45
69749;BME280;57019;52.354;6.584;2022-08-19T11:11:26;101357.06;;;25.42;51.97
69749;BME280;57019;52.354;6.584;2022-08-19T11:13:53;101352.38;;;25.44;51.27
69749;BME280;57019;52.354;6.584;2022-08-19T11:16:21;101355.22;;;25.43;50.49
69749;BME280;57019;52.354;6.584;2022-08-19T11:18:50;101350.78;;;25.43;52.02
69749;BME280;57019;52.354;6.584;2022-08-19T11:23:47;101348.72;;;25.45;50.11
69749;BME280;57019;52.354;6.584;2022-08-19T11:26:14;101353.59;;;25.48;50.67
69749;BME280;57019;52.354;6.584;2022-08-19T11:28:40;101358.66;;;25.56;50.67
69749;BME280;57019;52.354;6.584;2022-08-19T11:31:16;101359.28;;;25.52;51.05
69749;BME280;57019;52.354;6.584;2022-08-19T11:33:42;101357.28;;;25.47;51.46
69749;BME280;57019;52.354;6.584;2022-08-19T11:36:08;101344.06;;;25.47;51.08
69749;BME280;57019;52.354;6.584;2022-08-19T11:38:34;101350.34;;;25.46;51.48
69749;BME280;57019;52.354;6.584;2022-08-19T11:41:03;101349.13;;;25.49;50.75
69749;BME280;57019;52.354;6.584;2022-08-19T11:43:29;101350.13;;;25.48;50.72
69749;BME280;57019;52.354;6.584;2022-08-19T11:45:55;101347.69;;;25.46;51.08
69749;BME280;57019;52.354;6.584;2022-08-19T11:48:22;101347.50;;;25.48;50.89
69749;BME280;57019;52.354;6.584;2022-08-19T11:50:49;101338.13;;;25.52;50.87
69749;BME280;57019;52.354;6.584;2022-08-19T11:53:16;101334.47;;;25.60;48.98
69749;BME280;57019;52.354;6.584;2022-08-19T11:55:43;101344.63;;;25.63;48.67
69749;BME280;57019;52.354;6.584;2022-08-19T11:58:10;101345.63;;;25.62;49.69
69749;BME280;57019;52.354;6.584;2022-08-19T12:00:35;101341.78;;;25.64;48.09
69749;BME280;57019;52.354;6.584;2022-08-19T12:03:02;101347.06;;;25.57;47.96
69749;BME280;57019;52.354;6.584;2022-08-19T12:05:27;101339.13;;;25.57;48.27
69749;BME280;57019;52.354;6.584;2022-08-19T12:07:53;101331.63;;;25.54;47.46
69749;BME280;57019;52.354;6.584;2022-08-19T12:10:19;101342.19;;;25.54;48.21
69749;BME280;57019;52.354;6.584;2022-08-19T12:12:45;101344.66;;;25.49;47.88
69749;BME280;57019;52.354;6.584;2022-08-19T12:15:11;101345.25;;;25.51;48.61
69749;BME280;57019;52.354;6.584;2022-08-19T12:17:37;101335.28;;;25.53;47.75
69749;BME280;57019;52.354;6.584;2022-08-19T12:20:04;101341.38;;;25.54;48.04
69749;BME280;57019;52.354;6.584;2022-08-19T12:22:30;101335.28;;;25.53;47.74
69749;BME280;57019;52.354;6.584;2022-08-19T12:24:55;101328.56;;;25.57;49.03
69749;BME280;57019;52.354;6.584;2022-08-19T12:27:21;101333.03;;;25.64;47.02
69749;BME280;57019;52.354;6.584;2022-08-19T12:29:47;101338.13;;;25.65;48.07
69749;BME280;57019;52.354;6.584;2022-08-19T12:32:12;101338.13;;;25.59;48.08
69749;BME280;57019;52.354;6.584;2022-08-19T12:34:38;101325.91;;;25.57;47.72
69749;BME280;57019;52.354;6.584;2022-08-19T12:37:05;101341.00;;;25.50;48.63
69749;BME280;57019;52.354;6.584;2022-08-19T12:39:39;101330.63;;;25.55;48.03
69749;BME280;57019;52.354;6.584;2022-08-19T12:42:06;101327.94;;;25.62;48.46
69749;BME280;57019;52.354;6.584;2022-08-19T12:44:33;101329.16;;;25.66;48.64
69749;BME280;57019;52.354;6.584;2022-08-19T12:46:59;101329.78;;;25.62;48.23
69749;BME280;57019;52.354;6.584;2022-08-19T12:49:27;101335.69;;;25.50;47.87
69749;BME280;57019;52.354;6.584;2022-08-19T12:51:53;101335.28;;;25.33;47.72
69749;BME280;57019;52.354;6.584;2022-08-19T12:54:18;101328.78;;;25.09;46.89
69749;BME280;57019;52.354;6.584;2022-08-19T12:56:43;101324.72;;;25.13;47.23
69749;BME280;57019;52.354;6.584;2022-08-19T12:59:10;101328.59;;;25.11;46.55
69749;BME280;57019;52.354;6.584;2022-08-19T13:01:36;101323.50;;;25.09;45.53
69749;BME280;57019;52.354;6.584;2022-08-19T13:04:02;101319.63;;;25.05;45.33